Terminal Aerodrome Forecast
Issued by NWS

Home | Current Version | Previous Version | Text Only | Print | Product List | Glossary On
Versions: 1 2 3 4 5 6 7 8 9 10 11 12 13 14 15 16 17 18 19
197
FTUS43 KAPX 201929 AAA
TAFAPN
TAF AMD
KAPN 201929Z 2019/2118 28008KT P6SM BKN130
      TEMPO 2019/2021 BKN030
     FM202300 27004KT P6SM BKN120
     FM210800 VRB03KT 4SM BR OVC090
     FM211700 00000KT P6SM BKN060=

USA.gov is the U.S. government's official web portal to all federal, state and local government web resources and services.